Time;durP1;ratioP1;P1;durP2;ratioP2;P2;SDS_P1;SDS_P2;PMS_P1;PMS_P2;Temp;Humidity;BMP_temperature;BMP_pressure;BME280_temperature;BME280_humidity;BME280_pressure;Samples;Min_cycle;Max_cycle;Signal;HPM_P1;HPM_P2
2021/03/07 00:00:13;;;;;;;0.30;0.30;;;19.90;38.50;;;;;;6248772;22;20141;-78
2021/03/07 00:02:39;;;;;;;0.40;0.40;;;19.90;39.00;;;;;;6274994;22;20046;-78
2021/03/07 00:05:06;;;;;;;0.95;0.40;;;19.90;38.80;;;;;;6275973;22;20086;-78
2021/03/07 00:07:32;;;;;;;0.55;0.50;;;19.90;38.30;;;;;;6274177;22;20011;-78
2021/03/07 00:09:58;;;;;;;0.50;0.50;;;19.90;38.40;;;;;;6274076;22;20442;-78
2021/03/07 00:12:24;;;;;;;0.35;0.30;;;19.90;39.00;;;;;;6274698;22;20027;-78
2021/03/07 00:14:50;;;;;;;0.77;0.47;;;19.80;38.30;;;;;;6275985;22;20473;-79
2021/03/07 00:17:16;;;;;;;0.60;0.38;;;19.80;38.20;;;;;;6274225;22;20011;-78
2021/03/07 00:19:42;;;;;;;0.40;0.40;;;19.90;38.20;;;;;;6274187;22;20046;-78
2021/03/07 00:22:07;;;;;;;1.00;0.40;;;19.80;38.40;;;;;;6248602;22;20012;-79
2021/03/07 00:24:34;;;;;;;0.50;0.40;;;19.80;38.80;;;;;;6274188;22;20022;-78
2021/03/07 00:26:59;;;;;;;0.40;0.40;;;19.90;38.40;;;;;;6248379;22;20015;-78
2021/03/07 00:29:26;;;;;;;0.47;0.47;;;19.90;38.90;;;;;;6276077;22;20068;-78
2021/03/07 00:31:52;;;;;;;0.50;0.50;;;19.80;38.20;;;;;;6248584;22;20311;-79
2021/03/07 00:34:18;;;;;;;0.50;0.40;;;19.90;38.40;;;;;;6274249;22;20087;-79
2021/03/07 00:36:44;;;;;;;0.40;0.30;;;19.90;38.30;;;;;;6276098;22;20508;-79
2021/03/07 00:39:09;;;;;;;0.40;0.40;;;19.90;38.30;;;;;;6248472;22;20011;-78
2021/03/07 00:41:35;;;;;;;0.40;0.40;;;19.90;38.30;;;;;;6275784;22;20011;-79
2021/03/07 00:44:01;;;;;;;0.80;0.50;;;19.90;38.30;;;;;;6275862;22;20134;-79
2021/03/07 00:46:27;;;;;;;0.63;0.40;;;19.90;38.40;;;;;;6248629;22;20016;-79
2021/03/07 00:48:54;;;;;;;0.90;0.50;;;19.90;38.40;;;;;;6248896;22;20019;-78
2021/03/07 00:51:21;;;;;;;0.32;0.32;;;19.90;38.30;;;;;;6268416;22;20449;-79
2021/03/07 00:53:47;;;;;;;0.43;0.40;;;19.90;38.30;;;;;;6274058;22;20094;-78
2021/03/07 00:56:12;;;;;;;0.40;0.40;;;19.90;38.30;;;;;;6275491;22;20068;-79
2021/03/07 00:58:38;;;;;;;0.70;0.30;;;19.90;38.30;;;;;;6247891;22;20020;-79
2021/03/07 01:01:03;;;;;;;0.88;0.43;;;19.90;38.20;;;;;;6273800;22;20471;-79
2021/03/07 01:03:29;;;;;;;0.57;0.50;;;19.80;38.30;;;;;;6275507;22;20336;-79
2021/03/07 01:05:54;;;;;;;1.23;0.50;;;19.90;38.40;;;;;;6275673;22;20420;-79
2021/03/07 01:08:20;;;;;;;0.40;0.40;;;19.90;39.00;;;;;;6248974;22;20437;-79
2021/03/07 01:10:45;;;;;;;0.35;0.35;;;19.90;38.50;;;;;;6275340;22;20019;-78
2021/03/07 01:13:14;;;;;;;0.88;0.43;;;19.90;38.50;;;;;;6275502;22;20011;-78
2021/03/07 01:15:41;;;;;;;1.08;0.52;;;19.80;38.40;;;;;;6273926;22;20039;-78
2021/03/07 01:18:07;;;;;;;0.50;0.50;;;19.90;38.30;;;;;;6273877;22;20394;-78
2021/03/07 01:20:34;;;;;;;0.38;0.38;;;19.80;38.30;;;;;;6248112;22;20016;-78
2021/03/07 01:23:00;;;;;;;0.30;0.30;;;19.80;38.30;;;;;;6273760;22;20004;-78
2021/03/07 01:25:28;;;;;;;0.32;0.32;;;19.80;38.30;;;;;;6273635;22;20022;-78
2021/03/07 01:27:54;;;;;;;0.52;0.52;;;19.80;38.20;;;;;;6273470;22;20530;-78
2021/03/07 01:30:21;;;;;;;0.40;0.40;;;19.90;38.30;;;;;;6273534;22;20012;-78
2021/03/07 01:32:47;;;;;;;0.43;0.40;;;19.80;38.30;;;;;;6248191;22;20081;-79
2021/03/07 01:35:14;;;;;;;0.30;0.30;;;19.80;38.30;;;;;;6273752;22;20437;-78
2021/03/07 01:37:39;;;;;;;0.40;0.40;;;19.80;38.30;;;;;;6248095;22;20028;-78
2021/03/07 01:40:08;;;;;;;0.45;0.45;;;19.80;38.00;;;;;;6249830;22;20019;-78
2021/03/07 01:42:33;;;;;;;0.40;0.40;;;19.80;38.10;;;;;;6249400;22;20082;-78
2021/03/07 01:44:59;;;;;;;0.43;0.43;;;19.80;38.30;;;;;;6274896;22;20069;-79
2021/03/07 01:47:31;;;;;;;0.65;0.40;;;19.80;38.30;;;;;;6276490;22;20089;-80
2021/03/07 01:49:58;;;;;;;1.23;0.60;;;19.80;38.40;;;;;;6249454;22;20094;-78
2021/03/07 01:52:24;;;;;;;0.50;0.50;;;19.80;38.40;;;;;;6249295;22;20020;-78
2021/03/07 01:54:50;;;;;;;0.35;0.30;;;19.80;38.40;;;;;;6275343;22;20043;-78
2021/03/07 01:57:18;;;;;;;1.15;0.50;;;19.80;38.30;;;;;;6275587;22;20012;-78
2021/03/07 01:59:45;;;;;;;0.65;0.47;;;19.80;38.30;;;;;;6249363;22;20019;-78
2021/03/07 02:02:11;;;;;;;0.30;0.30;;;19.80;38.30;;;;;;6274861;22;20673;-78
2021/03/07 02:04:37;;;;;;;0.40;0.40;;;19.80;38.30;;;;;;6274977;22;20012;-78
2021/03/07 02:07:03;;;;;;;0.40;0.30;;;19.80;38.30;;;;;;6274759;22;20445;-78
2021/03/07 02:09:28;;;;;;;1.00;0.40;;;19.80;38.30;;;;;;6250020;22;20048;-78
2021/03/07 02:11:55;;;;;;;0.57;0.40;;;19.80;38.00;;;;;;6274819;22;20011;-78
2021/03/07 02:14:22;;;;;;;0.45;0.40;;;19.80;38.30;;;;;;6249768;22;20043;-78
2021/03/07 02:16:48;;;;;;;0.40;0.40;;;19.80;38.30;;;;;;6274780;22;20016;-78
2021/03/07 02:19:17;;;;;;;0.47;0.47;;;19.80;38.30;;;;;;6274710;22;20035;-78
2021/03/07 02:21:50;;;;;;;0.60;0.40;;;19.80;38.20;;;;;;6249051;22;20042;-78
2021/03/07 02:24:16;;;;;;;0.63;0.57;;;19.80;38.10;;;;;;6249343;22;20055;-78
2021/03/07 02:26:48;;;;;;;0.70;0.50;;;19.80;38.10;;;;;;6249346;22;20019;-78
2021/03/07 02:29:15;;;;;;;0.50;0.50;;;19.80;38.10;;;;;;6249265;22;20085;-78
2021/03/07 02:32:04;;;;;;;0.47;0.47;;;19.80;38.10;;;;;;6274634;22;20036;-78
2021/03/07 02:34:36;;;;;;;0.40;0.40;;;19.80;38.30;;;;;;6276348;22;20024;-78
2021/03/07 02:37:06;;;;;;;1.48;0.40;;;19.80;38.20;;;;;;6275375;22;20016;-78
2021/03/07 02:39:35;;;;;;;0.55;0.55;;;19.80;38.30;;;;;;6274310;22;20024;-79
2021/03/07 02:42:11;;;;;;;0.43;0.40;;;19.80;38.30;;;;;;6249556;22;20353;-79
2021/03/07 02:44:40;;;;;;;0.30;0.30;;;19.80;38.10;;;;;;6275271;22;20094;-78
2021/03/07 02:47:06;;;;;;;0.30;0.30;;;19.80;38.10;;;;;;6249681;22;20019;-79
2021/03/07 02:49:33;;;;;;;0.80;0.40;;;19.80;38.10;;;;;;6274805;22;20479;-78
2021/03/07 02:52:03;;;;;;;0.55;0.47;;;19.80;38.30;;;;;;6274761;22;20011;-79
2021/03/07 02:54:32;;;;;;;0.50;0.50;;;19.80;38.20;;;;;;6249631;22;20110;-78
2021/03/07 02:57:00;;;;;;;0.30;0.30;;;19.80;38.20;;;;;;6275022;22;20015;-78
2021/03/07 02:59:28;;;;;;;0.35;0.35;;;19.80;38.20;;;;;;6249835;22;20522;-79
2021/03/07 03:02:00;;;;;;;0.52;0.40;;;19.80;38.20;;;;;;6274750;22;20007;-79
2021/03/07 03:04:26;;;;;;;0.40;0.38;;;19.80;38.30;;;;;;6276991;22;20008;-78
2021/03/07 03:06:53;;;;;;;0.40;0.40;;;19.80;38.20;;;;;;6274610;22;20056;-78
2021/03/07 03:09:21;;;;;;;0.50;0.47;;;19.80;38.30;;;;;;6274391;22;20016;-79
2021/03/07 03:11:50;;;;;;;0.75;0.50;;;19.80;38.30;;;;;;6274582;22;20011;-79
2021/03/07 03:14:16;;;;;;;0.65;0.50;;;19.80;38.20;;;;;;6275209;22;20094;-78
2021/03/07 03:16:47;;;;;;;0.47;0.40;;;19.70;37.90;;;;;;6278482;22;20012;-79
2021/03/07 03:19:13;;;;;;;0.73;0.40;;;19.70;38.20;;;;;;6295913;22;20019;-78
2021/03/07 03:21:39;;;;;;;0.43;0.43;;;19.70;38.20;;;;;;6265895;22;20456;-78
2021/03/07 03:24:07;;;;;;;0.50;0.50;;;19.80;38.30;;;;;;6274793;22;20042;-79
2021/03/07 03:26:33;;;;;;;0.40;0.40;;;19.80;38.30;;;;;;6274635;22;20022;-78
2021/03/07 03:29:04;;;;;;;0.47;0.43;;;19.80;38.30;;;;;;6276124;22;20082;-78
2021/03/07 03:31:32;;;;;;;0.40;0.40;;;19.80;38.30;;;;;;6248997;22;20388;-79
2021/03/07 03:34:01;;;;;;;0.30;0.30;;;19.80;38.40;;;;;;6276148;22;20047;-78
2021/03/07 03:36:29;;;;;;;0.60;0.40;;;19.70;38.30;;;;;;6274527;22;20153;-78
2021/03/07 03:39:01;;;;;;;0.65;0.40;;;19.70;38.20;;;;;;6248756;22;20016;-78
2021/03/07 03:41:33;;;;;;;0.40;0.40;;;19.80;38.30;;;;;;6275812;22;20023;-78
2021/03/07 03:44:03;;;;;;;0.70;0.40;;;19.80;38.00;;;;;;6248972;22;20022;-78
2021/03/07 03:46:31;;;;;;;0.43;0.40;;;19.80;38.10;;;;;;6274587;22;20442;-78
2021/03/07 03:49:24;;;;;;;0.43;0.40;;;19.70;38.20;;;;;;6274210;22;20337;-78
2021/03/07 03:51:55;;;;;;;0.63;0.50;;;19.70;38.10;;;;;;6274354;22;20008;-78
2021/03/07 03:54:21;;;;;;;;;;;19.70;38.20;;;;;;6249300;22;20036;-79
2021/03/07 03:56:49;;;;;;;0.75;0.47;;;19.70;38.20;;;;;;6274289;22;20325;-78
2021/03/07 03:59:18;;;;;;;0.47;0.30;;;19.70;38.10;;;;;;6274785;22;20043;-79
2021/03/07 04:01:45;;;;;;;0.43;0.40;;;19.70;38.10;;;;;;6273624;22;20007;-79
2021/03/07 04:04:11;;;;;;;0.55;0.55;;;19.80;38.20;;;;;;6248841;22;20019;-78
2021/03/07 04:06:37;;;;;;;0.50;0.50;;;19.70;38.00;;;;;;6276408;22;20050;-79
2021/03/07 04:09:03;;;;;;;0.50;0.50;;;19.70;38.10;;;;;;6248810;22;20015;-79
2021/03/07 04:11:32;;;;;;;0.40;0.40;;;19.70;38.20;;;;;;6274390;22;20468;-78
2021/03/07 04:13:59;;;;;;;0.65;0.40;;;19.70;38.20;;;;;;6275895;22;20046;-79
2021/03/07 04:16:25;;;;;;;0.45;0.40;;;19.70;38.20;;;;;;6248608;22;20098;-79
2021/03/07 04:18:52;;;;;;;0.68;0.30;;;19.70;38.10;;;;;;6274282;22;20023;-78
2021/03/07 04:21:21;;;;;;;0.40;0.40;;;19.70;38.30;;;;;;6243419;22;20124;-79
2021/03/07 04:23:47;;;;;;;1.23;0.70;;;19.70;38.10;;;;;;6248633;22;20019;-79
2021/03/07 04:26:13;;;;;;;0.40;0.38;;;19.70;38.20;;;;;;6248296;22;20011;-79
2021/03/07 04:28:39;;;;;;;0.30;0.30;;;19.70;38.00;;;;;;6273666;22;20022;-79
2021/03/07 04:31:06;;;;;;;0.45;0.45;;;19.70;38.00;;;;;;6248150;22;20456;-79
2021/03/07 04:33:32;;;;;;;0.30;0.30;;;19.70;38.10;;;;;;6273674;22;20023;-79
2021/03/07 04:35:59;;;;;;;0.30;0.30;;;19.70;38.10;;;;;;6274192;22;20016;-79
2021/03/07 04:38:25;;;;;;;0.30;0.30;;;19.70;38.30;;;;;;6248549;22;20122;-78
2021/03/07 04:40:51;;;;;;;0.30;0.30;;;19.70;38.10;;;;;;6275782;22;20043;-79
2021/03/07 04:43:20;;;;;;;0.30;0.30;;;19.70;38.10;;;;;;6274164;22;20026;-79
2021/03/07 04:45:46;;;;;;;0.88;0.50;;;19.70;37.90;;;;;;6273810;22;20026;-79
2021/03/07 04:48:11;;;;;;;0.40;0.40;;;19.80;38.10;;;;;;6274012;22;20405;-79
2021/03/07 04:50:37;;;;;;;0.50;0.50;;;19.70;38.00;;;;;;6274071;22;20019;-79
2021/03/07 04:53:03;;;;;;;0.40;0.40;;;19.70;38.10;;;;;;6274495;22;20090;-79
2021/03/07 04:55:29;;;;;;;0.40;0.40;;;19.70;38.10;;;;;;6275657;22;20008;-78
2021/03/07 04:57:54;;;;;;;0.40;0.40;;;19.70;38.00;;;;;;6273907;22;20463;-78
2021/03/07 05:00:20;;;;;;;0.30;0.30;;;19.70;38.10;;;;;;6274100;22;20511;-79
2021/03/07 05:02:46;;;;;;;0.30;0.30;;;19.70;38.20;;;;;;6248384;22;20011;-79
2021/03/07 05:05:12;;;;;;;0.63;0.40;;;19.70;38.10;;;;;;6248518;22;20023;-79
2021/03/07 05:07:38;;;;;;;0.70;0.40;;;19.70;38.20;;;;;;6248705;22;20090;-79
2021/03/07 05:10:06;;;;;;;0.40;0.30;;;19.70;38.20;;;;;;6248651;22;20020;-79
2021/03/07 05:12:32;;;;;;;0.60;0.43;;;19.70;38.10;;;;;;6274903;22;20051;-79
2021/03/07 05:14:57;;;;;;;0.40;0.40;;;19.70;38.10;;;;;;6250385;22;20092;-79
2021/03/07 05:17:24;;;;;;;0.55;0.32;;;19.70;38.20;;;;;;6275026;22;20087;-79
2021/03/07 05:19:51;;;;;;;0.40;0.40;;;19.70;38.30;;;;;;6249543;22;20019;-79
2021/03/07 05:22:17;;;;;;;0.40;0.40;;;19.70;38.10;;;;;;6249454;22;20338;-78
2021/03/07 05:24:43;;;;;;;0.68;0.40;;;19.70;38.10;;;;;;6250151;22;20011;-78
2021/03/07 05:27:09;;;;;;;0.55;0.40;;;19.70;38.10;;;;;;6275062;22;20016;-78
2021/03/07 05:29:38;;;;;;;0.40;0.40;;;19.70;38.10;;;;;;6272111;22;20028;-78
2021/03/07 05:32:05;;;;;;;0.45;0.40;;;19.70;38.10;;;;;;6274813;22;20012;-79
2021/03/07 05:34:31;;;;;;;0.40;0.40;;;19.70;38.00;;;;;;6276756;22;20090;-79
2021/03/07 05:36:56;;;;;;;0.40;0.40;;;19.70;38.10;;;;;;6249365;22;20040;-78
2021/03/07 05:39:25;;;;;;;0.32;0.32;;;19.70;38.00;;;;;;6275358;22;20020;-78
2021/03/07 05:41:51;;;;;;;0.35;0.35;;;19.70;38.00;;;;;;6276655;22;20391;-79
2021/03/07 05:44:17;;;;;;;0.43;0.40;;;19.70;38.10;;;;;;6275239;22;20307;-78
2021/03/07 05:46:43;;;;;;;0.40;0.40;;;19.70;38.10;;;;;;6274830;22;20019;-78
2021/03/07 05:49:08;;;;;;;0.40;0.40;;;19.70;38.10;;;;;;6275050;22;20043;-79
2021/03/07 05:55:02;;;;;;;0.40;0.40;;;19.70;38.10;;;;;;6276402;22;20016;-79
2021/03/07 05:57:40;;;;;;;0.55;0.50;;;19.70;38.10;;;;;;6220675;22;20031;-79
2021/03/07 06:00:17;;;;;;;0.93;0.50;;;19.70;38.20;;;;;;6223983;22;20027;-78
2021/03/07 06:03:20;;;;;;;0.75;0.40;;;19.70;38.00;;;;;;6224222;22;20065;-79
2021/03/07 06:05:50;;;;;;;0.50;0.50;;;19.70;38.10;;;;;;6224025;22;20325;-79
2021/03/07 06:08:15;;;;;;;0.63;0.40;;;19.70;38.20;;;;;;6221608;22;20016;-78
2021/03/07 06:10:52;;;;;;;0.43;0.43;;;19.70;38.00;;;;;;6247493;22;20012;-78
2021/03/07 06:13:39;;;;;;;0.35;0.35;;;19.70;38.00;;;;;;6209216;22;20015;-78
2021/03/07 06:16:46;;;;;;;0.60;0.30;;;19.70;38.20;;;;;;6287726;22;20024;-78
2021/03/07 06:20:07;;;;;;;0.85;0.30;;;19.70;38.00;;;;;;6269572;22;20453;-78
2021/03/07 06:23:03;;;;;;;0.43;0.40;;;19.70;38.10;;;;;;6272127;22;20016;-79
2021/03/07 06:26:08;;;;;;;0.40;0.40;;;19.70;38.00;;;;;;6274377;22;20022;-78
2021/03/07 06:28:37;;;;;;;0.38;0.38;;;19.70;38.10;;;;;;6274022;22;20078;-78
2021/03/07 06:31:57;;;;;;;0.40;0.40;;;19.70;38.20;;;;;;6240077;22;20027;-79
2021/03/07 06:35:39;;;;;;;0.40;0.40;;;19.70;38.20;;;;;;6255884;22;20468;-79
2021/03/07 06:38:59;;;;;;;0.47;0.38;;;19.70;38.20;;;;;;6226947;22;20100;-78
2021/03/07 06:41:35;;;;;;;0.40;0.40;;;19.70;38.20;;;;;;6215368;23;20047;-79
2021/03/07 06:44:30;;;;;;;0.45;0.40;;;19.70;37.90;;;;;;6222166;23;20051;-78
2021/03/07 06:47:15;;;;;;;0.40;0.40;;;19.70;38.00;;;;;;6218077;22;20020;-79
2021/03/07 06:50:32;;;;;;;0.30;0.30;;;19.70;38.10;;;;;;6219446;22;20020;-78
2021/03/07 06:52:59;;;;;;;0.30;0.30;;;19.70;38.20;;;;;;6223446;22;20392;-78
2021/03/07 06:56:10;;;;;;;0.63;0.50;;;19.70;38.10;;;;;;6217651;22;20016;-78
2021/03/07 06:59:26;;;;;;;3.35;0.50;;;19.70;38.10;;;;;;6180767;23;20020;-78
2021/03/07 07:01:54;;;;;;;0.60;0.60;;;19.70;38.30;;;;;;6187048;23;20439;-79
2021/03/07 07:04:38;;;;;;;0.32;0.32;;;19.70;38.10;;;;;;6158470;23;20048;-79
2021/03/07 07:11:22;;;;;;;0.30;0.30;;;19.70;38.00;;;;;;6201958;23;20017;-78
2021/03/07 07:13:52;;;;;;;0.40;0.40;;;19.70;38.10;;;;;;6161785;23;20103;-79
2021/03/07 07:16:46;;;;;;;1.17;0.40;;;19.70;38.00;;;;;;6212010;23;20021;-79
2021/03/07 07:23:25;;;;;;;0.40;0.40;;;19.70;38.20;;;;;;6116361;23;20085;-78
2021/03/07 07:26:09;;;;;;;0.75;0.47;;;19.70;38.20;;;;;;6123585;23;20056;-79
2021/03/07 07:28:47;;;;;;;0.40;0.40;;;19.70;38.30;;;;;;6132432;23;20064;-78
2021/03/07 07:31:29;;;;;;;0.40;0.40;;;19.70;38.00;;;;;;6182870;23;20067;-79
2021/03/07 07:34:12;;;;;;;;;;;;;;;;;;;;;
2021/03/07 07:37:53;;;;;;;0.40;0.40;;;19.70;38.10;;;;;;6216989;22;20105;-79
2021/03/07 07:40:37;;;;;;;0.50;0.50;;;19.70;38.20;;;;;;6245566;22;20485;-79
2021/03/07 07:43:48;;;;;;;0.30;0.30;;;19.70;38.20;;;;;;6276218;22;20003;-79
2021/03/07 07:50:47;;;;;;;0.40;0.40;;;19.70;38.20;;;;;;6099506;23;20014;-78
2021/03/07 07:53:13;;;;;;;0.40;0.40;;;19.70;38.30;;;;;;6247773;22;20346;-78
2021/03/07 07:55:52;;;;;;;0.73;0.40;;;19.70;38.30;;;;;;6193870;23;20342;-78
2021/03/07 07:58:36;;;;;;;0.40;0.35;;;19.70;38.00;;;;;;6218047;23;20074;-79
2021/03/07 08:01:17;;;;;;;0.40;0.35;;;19.70;38.10;;;;;;6207301;23;20027;-78
2021/03/07 08:03:49;;;;;;;0.40;0.40;;;19.70;38.20;;;;;;6220987;22;20023;-78
2021/03/07 08:06:27;;;;;;;0.47;0.47;;;19.70;38.20;;;;;;6217650;23;20027;-78
2021/03/07 08:08:52;;;;;;;0.40;0.38;;;19.70;38.00;;;;;;6221506;22;20020;-79
2021/03/07 08:11:32;;;;;;;0.60;0.50;;;19.70;38.20;;;;;;6254035;22;20008;-78
2021/03/07 08:13:59;;;;;;;1.00;0.50;;;19.70;38.20;;;;;;6222085;22;20397;-78
2021/03/07 08:16:45;;;;;;;0.60;0.40;;;19.70;38.20;;;;;;6216794;22;20020;-78
2021/03/07 08:19:32;;;;;;;0.47;0.47;;;19.70;38.20;;;;;;6212199;22;20522;-78
2021/03/07 08:22:07;;;;;;;1.27;0.50;;;19.70;38.10;;;;;;6212002;22;20322;-78
2021/03/07 08:25:04;;;;;;;0.52;0.40;;;19.70;38.10;;;;;;6275177;22;20082;-78
2021/03/07 08:31:07;;;;;;;0.43;0.40;;;19.70;38.20;;;;;;6253727;22;20870;-78
2021/03/07 08:33:37;;;;;;;0.47;0.40;;;19.80;38.20;;;;;;6216716;22;20050;-79
2021/03/07 08:36:25;;;;;;;0.50;0.50;;;19.70;38.10;;;;;;6248462;22;20020;-79
2021/03/07 08:39:54;;;;;;;0.43;0.38;;;19.70;38.00;;;;;;6201290;23;20030;-78
2021/03/07 08:42:45;;;;;;;0.57;0.50;;;19.70;38.10;;;;;;6178210;23;20049;-79
2021/03/07 08:46:04;;;;;;;0.50;0.40;;;19.70;38.10;;;;;;6157077;23;20021;-79
2021/03/07 08:52:16;;;;;;;0.50;0.50;;;19.80;38.10;;;;;;6245445;22;20016;-79
2021/03/07 08:57:55;;;;;;;0.40;0.40;;;19.80;38.10;;;;;;6214641;23;20024;-79
2021/03/07 09:00:28;;;;;;;0.73;0.40;;;19.80;37.90;;;;;;6216238;23;20012;-78
2021/03/07 09:03:06;;;;;;;0.57;0.45;;;19.80;38.60;;;;;;6240419;23;20016;-79
2021/03/07 09:06:10;;;;;;;0.40;0.40;;;19.80;38.20;;;;;;6192540;23;20027;-79
2021/03/07 09:08:40;;;;;;;0.45;0.40;;;19.80;38.20;;;;;;6207802;23;20020;-79
2021/03/07 09:11:31;;;;;;;0.68;0.50;;;19.80;38.10;;;;;;6191918;23;20143;-79
2021/03/07 09:14:35;;;;;;;0.50;0.50;;;19.70;38.10;;;;;;6241990;23;20024;-79
2021/03/07 09:17:14;;;;;;;0.47;0.40;;;19.80;38.20;;;;;;6216253;23;20012;-78
2021/03/07 09:19:52;;;;;;;0.30;0.30;;;19.80;38.20;;;;;;6219247;23;20078;-78
2021/03/07 09:22:28;;;;;;;0.40;0.40;;;19.80;38.30;;;;;;6216736;23;20107;-78
2021/03/07 09:25:30;;;;;;;0.40;0.40;;;19.80;38.30;;;;;;6189455;23;20048;-79
2021/03/07 09:28:06;;;;;;;0.60;0.50;;;19.80;38.10;;;;;;6234423;22;20514;-79
2021/03/07 09:31:02;;;;;;;;;;;;;;;;;;;;;
2021/03/07 09:33:46;;;;;;;0.45;0.40;;;19.90;38.10;;;;;;6217536;23;20020;-79
2021/03/07 09:36:31;;;;;;;0.30;0.30;;;19.90;38.00;;;;;;6214224;23;20038;-79
2021/03/07 09:39:15;;;;;;;0.65;0.50;;;19.90;38.10;;;;;;6216838;23;20111;-78
2021/03/07 09:42:35;;;;;;;0.47;0.40;;;19.90;37.90;;;;;;6226505;22;20016;-78
2021/03/07 09:45:18;;;;;;;1.70;0.43;;;19.90;38.00;;;;;;6222312;22;20027;-78
2021/03/07 09:48:31;;;;;;;0.50;0.40;;;19.90;38.00;;;;;;6244961;22;20031;-78
2021/03/07 09:55:00;;;;;;;0.60;0.47;;;20.00;38.20;;;;;;6254149;22;20070;-79
2021/03/07 09:57:26;;;;;;;0.47;0.40;;;20.00;38.30;;;;;;6194181;22;20016;-79
2021/03/07 09:59:55;;;;;;;0.57;0.45;;;20.00;38.40;;;;;;6246932;22;20039;-78
2021/03/07 10:02:44;;;;;;;0.43;0.40;;;20.00;38.30;;;;;;6245630;22;20016;-79
2021/03/07 10:05:31;;;;;;;0.68;0.38;;;20.00;38.30;;;;;;6243870;23;20085;-79
2021/03/07 10:11:54;;;;;;;0.38;0.38;;;20.00;38.20;;;;;;6223533;22;20030;-78
2021/03/07 10:14:44;;;;;;;;;;;;;;;;;;;;;
2021/03/07 10:17:15;;;;;;;1.08;0.60;;;20.00;38.30;;;;;;6256517;22;20016;-78
2021/03/07 10:19:45;;;;;;;0.40;0.40;;;20.00;38.20;;;;;;6211799;22;20074;-78
2021/03/07 10:22:14;;;;;;;1.23;0.50;;;20.00;38.20;;;;;;6196644;22;20070;-78
2021/03/07 10:28:02;;;;;;;0.73;0.40;;;20.10;38.20;;;;;;6218506;22;20042;-79
2021/03/07 10:30:39;;;;;;;1.20;0.60;;;20.10;38.20;;;;;;6221616;22;20099;-78
2021/03/07 10:33:17;;;;;;;1.38;0.40;;;20.10;38.10;;;;;;6222301;22;20091;-78
2021/03/07 10:36:12;;;;;;;0.30;0.30;;;20.10;38.20;;;;;;6223301;22;20023;-79
2021/03/07 10:38:46;;;;;;;3.22;0.40;;;20.10;38.10;;;;;;6249127;22;20019;-78
2021/03/07 10:41:33;;;;;;;0.30;0.30;;;20.10;38.10;;;;;;6221353;22;20019;-79
2021/03/07 10:44:12;;;;;;;0.82;0.60;;;20.10;38.10;;;;;;6218314;22;20012;-78
2021/03/07 10:46:41;;;;;;;2.05;0.70;;;20.10;38.20;;;;;;6216534;22;20020;-79
2021/03/07 10:49:12;;;;;;;0.47;0.40;;;20.10;38.10;;;;;;6191491;23;20020;-79
2021/03/07 10:51:40;;;;;;;0.55;0.52;;;20.10;38.10;;;;;;6194176;23;20020;-78
2021/03/07 10:54:32;;;;;;;0.35;0.35;;;20.00;38.10;;;;;;6218592;23;20341;-78
2021/03/07 10:57:36;;;;;;;0.63;0.60;;;20.00;38.00;;;;;;6219861;23;20052;-78
2021/03/07 11:00:29;;;;;;;0.65;0.40;;;20.00;38.20;;;;;;6208690;23;20048;-79
2021/03/07 11:04:09;;;;;;;;;;;;;;;;;;;;;
2021/03/07 11:06:57;;;;;;;1.60;0.77;;;20.00;38.20;;;;;;6091673;23;20103;-79
2021/03/07 11:09:23;;;;;;;;;;;20.00;38.30;;;;;;6193884;23;20012;-78
2021/03/07 11:11:49;;;;;;;0.77;0.50;;;20.00;38.30;;;;;;6193459;23;19969;-79
2021/03/07 11:14:14;;;;;;;0.75;0.40;;;20.00;38.20;;;;;;6218519;23;20023;-79
2021/03/07 11:16:40;;;;;;;0.55;0.47;;;20.00;38.30;;;;;;6193437;23;20043;-78
2021/03/07 11:19:06;;;;;;;0.40;0.40;;;19.90;38.20;;;;;;6218571;23;20031;-78
2021/03/07 11:21:37;;;;;;;0.70;0.55;;;19.90;38.30;;;;;;6193004;23;20430;-79
2021/03/07 11:24:06;;;;;;;0.50;0.50;;;19.90;38.20;;;;;;6218803;23;20016;-78
2021/03/07 11:26:40;;;;;;;0.40;0.40;;;19.90;38.20;;;;;;6190168;23;20027;-79
2021/03/07 11:29:21;;;;;;;0.73;0.63;;;19.90;38.30;;;;;;6245213;23;20020;-79
2021/03/07 11:31:51;;;;;;;0.70;0.50;;;19.90;38.30;;;;;;6245120;23;20032;-78
2021/03/07 11:34:47;;;;;;;0.75;0.55;;;19.90;38.30;;;;;;6218454;23;20028;-79
2021/03/07 11:37:20;;;;;;;0.40;0.40;;;19.90;38.20;;;;;;6193385;23;20027;-79
2021/03/07 11:39:46;;;;;;;0.40;0.40;;;19.90;38.20;;;;;;6217818;23;20020;-78
2021/03/07 11:42:12;;;;;;;0.85;0.52;;;19.90;38.30;;;;;;6245810;23;20008;-79
2021/03/07 11:44:37;;;;;;;0.40;0.40;;;19.90;38.20;;;;;;6193557;23;20042;-78
2021/03/07 11:47:03;;;;;;;0.70;0.40;;;19.90;38.30;;;;;;6217807;23;20099;-79
2021/03/07 11:49:29;;;;;;;1.00;0.60;;;19.90;38.30;;;;;;6218562;23;20497;-79
2021/03/07 11:52:00;;;;;;;0.40;0.40;;;19.80;38.20;;;;;;6193107;23;20016;-79
2021/03/07 11:54:25;;;;;;;0.73;0.50;;;19.90;38.20;;;;;;6218370;23;20012;-79
2021/03/07 11:57:12;;;;;;;0.40;0.40;;;19.80;38.00;;;;;;6245471;22;20042;-79
2021/03/07 12:03:07;;;;;;;0.50;0.50;;;19.80;38.10;;;;;;6215001;23;20031;-79
2021/03/07 12:09:05;;;;;;;0.50;0.50;;;19.80;38.20;;;;;;6216275;23;20016;-79
2021/03/07 12:11:31;;;;;;;0.55;0.50;;;19.80;38.10;;;;;;6245207;23;20103;-78
2021/03/07 12:13:59;;;;;;;1.95;0.70;;;19.90;38.20;;;;;;6218054;23;20394;-79
2021/03/07 12:16:28;;;;;;;0.52;0.50;;;19.80;38.20;;;;;;6192581;22;20062;-80
2021/03/07 12:19:09;;;;;;;0.75;0.50;;;19.80;38.70;;;;;;6218292;23;20061;-78
2021/03/07 12:21:37;;;;;;;0.60;0.47;;;19.80;38.20;;;;;;6217987;23;20027;-79
2021/03/07 12:25:06;;;;;;;0.50;0.40;;;19.80;38.10;;;;;;6192976;23;20016;-78
2021/03/07 12:27:42;;;;;;;0.73;0.40;;;19.80;38.10;;;;;;6075109;23;20023;-79
2021/03/07 12:30:32;;;;;;;0.50;0.50;;;19.80;38.00;;;;;;6218324;23;20567;-79
2021/03/07 12:33:25;;;;;;;1.50;0.70;;;19.80;38.30;;;;;;6217758;23;20008;-79
2021/03/07 12:36:18;;;;;;;0.50;0.50;;;19.80;38.40;;;;;;6219298;23;20106;-79
2021/03/07 12:38:47;;;;;;;1.13;0.50;;;19.80;38.30;;;;;;6218563;23;20039;-79
2021/03/07 12:41:16;;;;;;;0.95;0.50;;;19.80;38.20;;;;;;6218412;23;20441;-79
2021/03/07 12:43:47;;;;;;;1.23;0.47;;;19.80;38.20;;;;;;6218402;23;20020;-78
2021/03/07 12:46:12;;;;;;;1.77;0.82;;;19.80;38.30;;;;;;6244902;22;20040;-79
2021/03/07 12:48:40;;;;;;;0.63;0.50;;;19.80;38.90;;;;;;6217638;23;20023;-79
2021/03/07 12:51:09;;;;;;;0.65;0.57;;;19.90;38.40;;;;;;6244653;23;20026;-79
2021/03/07 12:53:34;;;;;;;0.75;0.40;;;19.90;38.40;;;;;;6192877;23;20008;-79
2021/03/07 12:56:13;;;;;;;1.02;0.50;;;19.80;38.40;;;;;;6218181;23;20042;-79
2021/03/07 12:58:47;;;;;;;0.63;0.63;;;19.90;38.40;;;;;;6218425;23;20051;-78
2021/03/07 13:01:27;;;;;;;0.57;0.50;;;19.80;38.30;;;;;;6193048;23;20016;-78
2021/03/07 13:03:54;;;;;;;0.70;0.70;;;19.90;38.40;;;;;;6218363;23;20046;-78
2021/03/07 13:06:20;;;;;;;1.10;0.60;;;19.80;38.40;;;;;;6193078;23;20338;-79
2021/03/07 13:08:54;;;;;;;0.57;0.52;;;19.90;38.40;;;;;;6192589;23;20434;-79
2021/03/07 13:11:21;;;;;;;0.50;0.50;;;19.80;38.30;;;;;;6193060;23;20027;-78
2021/03/07 13:13:47;;;;;;;0.50;0.40;;;19.90;38.30;;;;;;6218553;23;20023;-78
2021/03/07 13:16:22;;;;;;;1.30;0.60;;;19.90;38.40;;;;;;6217943;23;20020;-78
2021/03/07 13:18:48;;;;;;;1.05;0.52;;;19.90;38.40;;;;;;6190661;23;20350;-79
2021/03/07 13:21:47;;;;;;;0.50;0.50;;;19.90;38.40;;;;;;6218740;23;20042;-78
2021/03/07 13:24:15;;;;;;;0.50;0.50;;;19.90;38.30;;;;;;6217571;23;20011;-79
2021/03/07 13:26:44;;;;;;;1.20;0.80;;;19.90;38.40;;;;;;6218165;23;20066;-78
2021/03/07 13:30:00;;;;;;;0.70;0.50;;;19.90;38.40;;;;;;6192335;23;20023;-78
2021/03/07 13:32:29;;;;;;;1.15;0.57;;;19.90;38.40;;;;;;6214804;23;20024;-78
2021/03/07 13:34:55;;;;;;;0.80;0.60;;;19.90;38.20;;;;;;6218098;23;20401;-78
2021/03/07 13:37:20;;;;;;;0.73;0.60;;;19.90;38.20;;;;;;6193437;23;20319;-78
2021/03/07 13:39:49;;;;;;;1.02;0.65;;;19.90;38.30;;;;;;6194341;23;20020;-78
2021/03/07 13:42:18;;;;;;;0.57;0.47;;;19.90;38.40;;;;;;6246312;23;20307;-78
2021/03/07 13:44:44;;;;;;;0.80;0.70;;;19.90;38.30;;;;;;6245936;23;20091;-78
2021/03/07 13:50:11;;;;;;;0.68;0.65;;;19.90;38.40;;;;;;6244240;23;20505;-78
2021/03/07 13:52:38;;;;;;;0.50;0.50;;;19.90;38.40;;;;;;6218458;23;20385;-78
2021/03/07 13:55:05;;;;;;;0.70;0.50;;;19.90;38.20;;;;;;6193792;23;20024;-78
2021/03/07 13:57:31;;;;;;;1.33;0.60;;;19.80;38.30;;;;;;6193993;23;20064;-78
2021/03/07 14:01:05;;;;;;;0.93;0.60;;;19.80;38.20;;;;;;6196206;23;20338;-78
2021/03/07 14:03:31;;;;;;;0.90;0.50;;;19.90;38.40;;;;;;6159179;23;20022;-78
2021/03/07 14:06:00;;;;;;;0.70;0.70;;;19.80;38.30;;;;;;6218636;23;20103;-78
2021/03/07 14:08:53;;;;;;;1.42;0.80;;;19.90;38.40;;;;;;6218236;23;20030;-78
2021/03/07 14:11:22;;;;;;;0.88;0.60;;;19.90;38.30;;;;;;6218984;23;20023;-78
2021/03/07 14:14:02;;;;;;;0.75;0.68;;;19.80;38.30;;;;;;6193505;23;20027;-78
2021/03/07 14:16:33;;;;;;;0.63;0.60;;;19.90;38.20;;;;;;6195004;23;20488;-78
2021/03/07 14:18:59;;;;;;;0.75;0.52;;;19.90;38.30;;;;;;6193906;23;20008;-78